Bei Facebook empfehlenBei Twitter postenGoogle plusPinterest

Das Wetter im Erzgebirge am 22.06.2017

Wetter und Klima am 22.06.2017 Holzhau im Erzgebirge (630m ü.NN)
Letzte gemessene Temperatur und Uhrzeit der Messung19:45:00 Uhr19.90 °C
Temperatur (Maximum / Höchstwert) und Uhrzeit der Messung16:45:00 Uhr32.60 °C
Temperatur (Minimum / Tiefstwert) und Uhrzeit der Messung04:45:007.90 °C
Errechneter Absolutwert der Temperaturschwankungen zwischen Tmin und Tmax des Tages24.70 K
Errechnete Tagesmitteltemperatur20.71750 °C
Gesamt - Niederschlag des Tages (in flüssiger Form)0.00 Liter / m²
Luftdruck (Maximum / Höchstwert) und Zeitpunkt der Messung00:15:00 Uhr1014.90 hPa
Luftdruck (Minimum / Tiefstwert) und Zeitpunkt der Messung19:15:00 Uhr1010.10 hPa
Errechneter Absolutwert der Luftdruckschwankungen des Tages4.80 hPa
Höchste gemessene Windgeschwindigkeit und Uhrzeit der Messung19:00:00 Uhr34.92 km/h
Errechnete Windhäufigkeit in Relation zu den Messwerten des Tages18.75000 %
Niedrigste Windkühle (Windchill) und Zeitpunkt der Messung04:45:00 Uhr7.90 °C
Taupunkt (Maximum / Höchstwert) und Uhrzeit der Messung12:15:00 Uhr16.00 °C
Taupunkt (Minimum / Tiefstwert) und Uhrzeit der Messung02:45:005.40 °C
Anzahl der automatisch eingelesenen Messwerte 80

Detaillierte Wetter- und Klima- Messwerte für den 22.06.2017 in Holzhau im Erzgebirge (630m ü.NN)
ZeitTemperaturLuftdruckRel. LuftfeuchteWindWindrichtungWindchillTaupunktNiederschlag l/m²
19:45:0019.90 °C1012.10 hPa67.00 %13.60 °C 
19:30:0019.90 °C1010.20 hPa66.00 %18.00 km/hOSO21.00 °C13.40 °C 
19:15:0019.90 °C1010.10 hPa66.00 %6.48 km/hONO19.90 °C13.40 °C 
19:00:0019.90 °C1010.30 hPa67.00 %34.92 km/hSO20.50 °C13.60 °C 
18:45:0020.90 °C1010.80 hPa62.00 %13.40 °C 
18:30:0022.30 °C1010.70 hPa56.00 %18.00 km/hSSO23.70 °C13.10 °C 
18:15:0023.90 °C1010.80 hPa50.00 %19.44 km/hOSO25.50 °C12.80 °C 
18:00:0027.30 °C1010.70 hPa42.00 %13.30 °C 
17:45:0031.90 °C1011.30 hPa37.00 %15.40 °C 
17:30:0031.50 °C1010.70 hPa38.00 %15.50 °C 
17:15:0031.80 °C1010.80 hPa37.00 %15.30 °C 
17:00:0032.40 °C1010.80 hPa36.00 %15.40 °C 
16:45:0032.60 °C1010.70 hPa36.00 %6.48 km/hWNW32.60 °C15.60 °C 
16:30:0032.10 °C1011.00 hPa35.00 %14.70 °C 
16:15:0032.10 °C1011.40 hPa35.00 %16.92 km/hWSW32.10 °C14.70 °C 
16:00:0031.80 °C1011.50 hPa36.00 %10.44 km/hW31.80 °C14.90 °C 
15:45:0031.70 °C1011.40 hPa35.00 %14.40 °C 
15:30:0032.20 °C1011.50 hPa34.00 %14.30 °C 
15:15:0032.30 °C1011.50 hPa36.00 %12.96 km/hSSW32.30 °C15.30 °C 
15:00:0031.90 °C1011.50 hPa35.00 %14.50 °C 
14:45:0031.90 °C1011.50 hPa37.00 %15.40 °C 
14:30:0031.70 °C1011.40 hPa36.00 %14.80 °C 
14:15:0031.40 °C1011.50 hPa37.00 %15.00 °C 
14:00:0031.20 °C1011.40 hPa37.00 %3.96 km/hNNW31.20 °C14.80 °C 
13:45:0030.80 °C1011.50 hPa38.00 %14.80 °C 
13:30:0030.50 °C1011.70 hPa40.00 %15.40 °C 
13:15:0030.10 °C1011.90 hPa39.00 %14.60 °C 
13:00:0029.90 °C1012.10 hPa39.00 %14.40 °C 
12:45:0029.90 °C1012.30 hPa39.00 %14.40 °C 
12:30:0029.60 °C1012.50 hPa42.00 %15.30 °C 
12:15:0029.90 °C1012.60 hPa43.00 %15.48 km/hNW29.90 °C16.00 °C 
12:00:0029.50 °C1012.90 hPa43.00 %15.60 °C 
11:45:0028.80 °C1012.70 hPa45.00 %15.70 °C 
11:30:0028.30 °C1013.00 hPa46.00 %15.60 °C 
11:15:0028.40 °C1013.30 hPa44.00 %18.00 km/hSSW30.60 °C15.00 °C 
11:00:0028.20 °C1013.30 hPa46.00 %15.50 °C 
10:45:0027.90 °C1013.30 hPa46.00 %15.20 °C 
10:30:0027.40 °C1013.20 hPa47.00 %15.10 °C 
10:15:0027.30 °C1013.40 hPa47.00 %15.00 °C 
10:00:0026.90 °C1013.40 hPa51.00 %15.90 °C 
09:45:0026.20 °C1013.20 hPa53.00 %15.90 °C 
09:30:0025.90 °C1013.20 hPa54.00 %15.90 °C 
09:15:0025.40 °C1013.20 hPa55.00 %15.70 °C 
09:00:0024.90 °C1013.10 hPa56.00 %15.50 °C 
08:45:0024.40 °C1013.10 hPa58.00 %15.60 °C 
08:30:0023.70 °C1013.10 hPa60.00 %15.50 °C 
08:15:0022.30 °C1013.10 hPa64.00 %19.44 km/hNO23.70 °C15.20 °C 
08:00:0021.30 °C1013.10 hPa65.00 %14.50 °C 
07:45:0020.10 °C1013.10 hPa67.00 %13.80 °C 
07:30:0018.20 °C1013.10 hPa72.00 %13.10 °C 
07:15:0015.10 °C1013.20 hPa80.00 %11.70 °C 
07:00:0011.90 °C1013.30 hPa85.00 %9.50 °C 
06:45:0010.90 °C1013.30 hPa86.00 %8.70 °C 
06:30:0010.40 °C1013.30 hPa87.00 %8.30 °C 
06:15:009.60 °C1013.20 hPa88.00 %7.70 °C 
06:00:008.90 °C1013.20 hPa88.00 %7.00 °C 
05:45:008.60 °C1013.60 hPa87.00 %6.60 °C 
05:30:008.40 °C1013.70 hPa87.00 %6.40 °C 
05:15:008.30 °C1013.60 hPa87.00 %6.30 °C 
05:00:008.30 °C1013.50 hPa87.00 %6.30 °C 
04:45:007.90 °C1013.70 hPa86.00 %5.70 °C 
04:30:008.10 °C1013.80 hPa85.00 %5.70 °C 
04:15:008.20 °C1013.70 hPa85.00 %5.80 °C 
04:00:008.10 °C1013.70 hPa85.00 %5.70 °C 
03:45:008.20 °C1013.90 hPa84.00 %5.70 °C 
03:30:008.30 °C1014.10 hPa83.00 %5.60 °C 
03:15:008.50 °C1014.20 hPa82.00 %5.60 °C 
03:00:008.50 °C1014.20 hPa82.00 %5.60 °C 
02:45:008.50 °C1014.30 hPa81.00 %5.40 °C 
02:30:008.60 °C1014.20 hPa81.00 %3.96 km/hOSO8.60 °C5.50 °C 
02:15:008.70 °C1014.30 hPa80.00 %5.40 °C 
02:00:008.80 °C1014.30 hPa80.00 %5.50 °C 
01:45:008.90 °C1014.50 hPa79.00 %5.50 °C 
01:30:009.10 °C1014.50 hPa79.00 %5.70 °C 
01:15:009.10 °C1014.50 hPa79.00 %5.70 °C 
01:00:009.30 °C1014.70 hPa78.00 %5.70 °C 
00:45:009.60 °C1014.80 hPa78.00 %6.00 °C 
00:30:009.80 °C1014.80 hPa77.00 %6.00 °C 
00:15:0010.20 °C1014.90 hPa77.00 %6.40 °C 
00:00:0010.30 °C1014.90 hPa77.00 %6.48 km/hOSO10.30 °C6.50 °C 

Permanenter Link zu dieser Seite: Wetter im Erzgebirge am 22.06.2017
Performance-Info: Die Erstellung der Seite / Statistik(en) / Tabelle(n) erforderte 5 Datenbankserver-Abfrage(n) und dauerte 98 Millisekunden. (Dieser Messwert ist von der Gesamt-Auslastung des Servers abhängig.)
Erzgebirge - Wetter | Erzgebirge - Wetter (Mobilgeräte) | Komplette Klimadatenbank